createdAt,value
2018-10-17T00:00:46.158Z,13.63
2018-10-17T00:03:16.296Z,12.77
2018-10-17T00:05:46.495Z,12.23
2018-10-17T00:08:17.186Z,12.00
2018-10-17T00:10:47.270Z,11.80
2018-10-17T00:13:17.548Z,12.00
2018-10-17T00:15:47.770Z,12.60
2018-10-17T00:18:17.766Z,12.80
2018-10-17T00:20:47.993Z,12.50
2018-10-17T00:23:17.984Z,12.40
2018-10-17T00:25:48.039Z,12.67
2018-10-17T00:28:18.055Z,12.87
2018-10-17T00:30:48.335Z,11.83
2018-10-17T00:33:18.600Z,11.90
2018-10-17T00:35:48.720Z,12.20
2018-10-17T00:38:19.110Z,13.33
2018-10-17T00:40:49.380Z,12.03
2018-10-17T00:43:19.724Z,13.00
2018-10-17T00:45:49.855Z,11.60
2018-10-17T00:48:19.943Z,11.30
2018-10-17T00:50:50.671Z,10.67
2018-10-17T00:53:21.109Z,11.90
2018-10-17T00:55:51.325Z,11.60
2018-10-17T00:58:21.556Z,10.50
2018-10-17T01:00:51.647Z,18.90
2018-10-17T01:03:22.600Z,17.53
2018-10-17T01:05:52.904Z,18.43
2018-10-17T01:08:23.010Z,18.20
2018-10-17T01:10:53.137Z,17.80
2018-10-17T01:13:23.990Z,17.73
2018-10-17T01:15:55.068Z,15.73
2018-10-17T01:18:25.447Z,14.37
2018-10-17T01:20:55.570Z,13.70
2018-10-17T01:23:25.534Z,13.97
2018-10-17T01:25:55.727Z,13.30
2018-10-17T01:28:26.033Z,12.37
2018-10-17T01:30:56.057Z,13.30
2018-10-17T01:33:26.122Z,13.70
2018-10-17T01:35:57.264Z,14.27
2018-10-17T01:38:27.287Z,13.60
2018-10-17T01:40:57.571Z,14.17
2018-10-17T01:43:27.728Z,12.50
2018-10-17T01:45:58.502Z,12.00
2018-10-17T01:48:29.461Z,12.40
2018-10-17T01:51:00.009Z,13.03
2018-10-17T01:53:30.391Z,13.67
2018-10-17T01:56:00.901Z,12.20
2018-10-17T01:58:31.152Z,12.10
2018-10-17T02:01:01.144Z,13.70
2018-10-17T02:03:31.504Z,13.57
2018-10-17T02:06:01.608Z,12.90
2018-10-17T02:08:31.760Z,11.93
2018-10-17T02:11:02.002Z,13.13
2018-10-17T02:13:32.270Z,11.63
2018-10-17T02:16:02.324Z,13.20
2018-10-17T02:18:32.380Z,12.97
2018-10-17T02:21:03.356Z,12.67
2018-10-17T02:23:34.373Z,11.33
2018-10-17T02:26:04.781Z,12.93
2018-10-17T02:28:34.820Z,12.90
2018-10-17T02:31:05.043Z,12.70
2018-10-17T02:33:35.376Z,12.17
2018-10-17T02:36:06.967Z,12.90
2018-10-17T02:38:37.188Z,13.53
2018-10-17T02:41:07.440Z,12.17
2018-10-17T02:43:37.720Z,13.40
2018-10-17T02:46:09.768Z,13.30
2018-10-17T02:48:39.881Z,13.27
2018-10-17T02:51:10.145Z,13.23
2018-10-17T02:53:40.314Z,13.90
2018-10-17T02:56:10.658Z,14.63
2018-10-17T02:58:40.769Z,13.03
2018-10-17T03:01:13.438Z,12.50
2018-10-17T03:03:44.403Z,12.90
2018-10-17T03:06:14.698Z,13.67
2018-10-17T03:08:44.953Z,14.80
2018-10-17T03:11:15.255Z,15.87
2018-10-17T03:13:45.745Z,13.50
2018-10-17T03:16:15.919Z,14.20
2018-10-17T03:18:46.246Z,13.93
2018-10-17T03:21:16.416Z,13.00
2018-10-17T03:23:46.518Z,14.40
2018-10-17T03:26:16.685Z,14.90
2018-10-17T03:28:47.906Z,12.60
2018-10-17T03:31:18.448Z,12.97
2018-10-17T03:33:49.613Z,14.03
2018-10-17T03:36:21.673Z,14.80
2018-10-17T03:38:51.820Z,14.70
2018-10-17T03:41:21.851Z,14.63
2018-10-17T03:43:52.100Z,15.67
2018-10-17T03:46:23.278Z,14.10
2018-10-17T03:48:53.265Z,13.23
2018-10-17T03:51:23.557Z,14.07
2018-10-17T03:53:53.754Z,14.87
2018-10-17T03:56:23.924Z,13.43
2018-10-17T03:58:54.265Z,13.83
2018-10-17T04:01:25.316Z,14.90
2018-10-17T04:03:55.501Z,14.67
2018-10-17T04:06:27.760Z,14.20
2018-10-17T04:08:57.665Z,14.60
2018-10-17T04:11:28.014Z,14.40
2018-10-17T04:13:58.447Z,14.43
2018-10-17T04:16:28.664Z,14.43
2018-10-17T04:18:59.074Z,13.40
2018-10-17T04:21:29.505Z,13.57
2018-10-17T04:23:59.414Z,14.60
2018-10-17T04:26:29.893Z,15.03
2018-10-17T04:29:00.135Z,16.67
2018-10-17T04:31:31.453Z,16.07
2018-10-17T04:34:01.824Z,14.30
2018-10-17T04:36:34.608Z,15.87
2018-10-17T04:39:05.840Z,17.60
2018-10-17T04:41:40.108Z,14.43
2018-10-17T04:44:11.308Z,14.57
2018-10-17T04:46:42.445Z,17.00
2018-10-17T04:49:13.564Z,15.83
2018-10-17T04:51:46.630Z,16.07
2018-10-17T04:54:17.657Z,14.70
2018-10-17T04:56:48.347Z,14.60
2018-10-17T04:59:18.086Z,15.43
2018-10-17T05:01:47.786Z,16.50
2018-10-17T05:04:17.440Z,16.57
2018-10-17T05:06:51.398Z,15.50
2018-10-17T05:09:21.112Z,14.23
2018-10-17T05:11:50.840Z,15.03
2018-10-17T05:14:20.696Z,16.23
2018-10-17T05:16:59.941Z,15.43
2018-10-17T05:19:30.247Z,13.83
2018-10-17T05:21:59.965Z,13.70
2018-10-17T05:24:29.783Z,14.70
2018-10-17T05:27:00.030Z,14.90
2018-10-17T05:29:29.801Z,14.67
2018-10-17T05:31:59.516Z,15.40
2018-10-17T05:34:30.151Z,13.43
2018-10-17T05:37:00.065Z,15.40
2018-10-17T05:39:29.796Z,14.50
2018-10-17T05:41:59.580Z,13.67
2018-10-17T05:44:29.378Z,12.53
2018-10-17T05:46:59.102Z,15.23
2018-10-17T05:49:28.898Z,13.47
2018-10-17T05:51:58.657Z,13.60
2018-10-17T05:54:29.516Z,13.17
2018-10-17T05:56:59.275Z,12.30
2018-10-17T05:59:30.985Z,12.70
2018-10-17T06:02:04.204Z,12.13
2018-10-17T06:04:34.174Z,13.20
2018-10-17T06:07:05.336Z,13.10
2018-10-17T06:09:36.528Z,12.40
2018-10-17T06:12:06.789Z,12.20
2018-10-17T06:14:36.878Z,12.90
2018-10-17T06:17:07.324Z,12.30
2018-10-17T06:19:38.225Z,11.73
2018-10-17T06:22:08.397Z,11.40
2018-10-17T06:24:38.261Z,11.40
2018-10-17T06:27:08.243Z,11.60
2018-10-17T06:29:38.302Z,13.23
2018-10-17T06:32:09.270Z,12.43
2018-10-17T06:34:39.671Z,13.67
2018-10-17T06:37:14.094Z,12.23
2018-10-17T06:39:44.068Z,12.77
2018-10-17T06:42:14.439Z,12.27
2018-10-17T06:44:44.631Z,13.90
2018-10-17T06:47:15.525Z,13.00
2018-10-17T06:49:46.671Z,13.40
2018-10-17T06:52:16.814Z,13.03
2018-10-17T06:54:47.045Z,13.60
2018-10-17T06:57:18.026Z,12.97
2018-10-17T06:59:48.252Z,14.73
2018-10-17T07:02:18.746Z,11.97
2018-10-17T07:04:48.773Z,15.20
2018-10-17T07:07:18.806Z,14.47
2018-10-17T07:09:48.937Z,13.83
2018-10-17T07:12:19.062Z,14.33
2018-10-17T07:14:49.517Z,15.33
2018-10-17T07:17:19.951Z,14.97
2018-10-17T07:19:50.059Z,14.90
2018-10-17T07:22:20.350Z,15.13
2018-10-17T07:24:50.657Z,13.57
2018-10-17T07:27:20.390Z,14.37
2018-10-17T07:29:50.203Z,13.20
2018-10-17T07:32:20.856Z,14.60
2018-10-17T07:34:51.657Z,14.67
2018-10-17T07:37:21.384Z,14.40
2018-10-17T07:39:51.350Z,13.67
2018-10-17T07:42:21.040Z,15.23
2018-10-17T07:44:50.776Z,14.53
2018-10-17T07:47:20.894Z,13.57
2018-10-17T07:49:51.584Z,13.13
2018-10-17T07:52:21.250Z,13.70
2018-10-17T07:54:50.923Z,13.87
2018-10-17T07:57:21.075Z,13.10
2018-10-17T07:59:50.890Z,12.80
2018-10-17T08:02:20.583Z,16.13
2018-10-17T08:04:51.323Z,14.13
2018-10-17T08:07:21.015Z,13.73
2018-10-17T08:09:50.667Z,15.00
2018-10-17T08:12:20.693Z,14.50
2018-10-17T08:14:50.393Z,15.47
2018-10-17T08:17:20.249Z,14.40
2018-10-17T08:19:50.041Z,15.10
2018-10-17T08:22:19.972Z,13.77
2018-10-17T08:24:49.672Z,13.87
2018-10-17T08:27:20.790Z,13.20
2018-10-17T08:29:50.446Z,14.67
2018-10-17T08:32:20.077Z,14.73
2018-10-17T08:34:49.707Z,13.17
2018-10-17T08:37:27.392Z,14.90
2018-10-17T08:39:56.871Z,15.00
2018-10-17T08:42:27.492Z,16.00
2018-10-17T08:44:57.298Z,14.97
2018-10-17T08:47:27.015Z,14.87
2018-10-17T08:49:56.839Z,14.90
2018-10-17T08:52:26.567Z,16.00
2018-10-17T08:54:56.295Z,15.23
2018-10-17T08:57:25.895Z,14.90
2018-10-17T08:59:55.685Z,14.97
2018-10-17T09:02:25.525Z,14.40
2018-10-17T09:04:55.302Z,15.33
2018-10-17T09:07:25.052Z,15.90
2018-10-17T09:09:54.829Z,15.33
2018-10-17T09:12:24.503Z,14.30
2018-10-17T09:14:54.210Z,14.30
2018-10-17T09:17:23.896Z,14.73
2018-10-17T09:19:54.006Z,14.80
2018-10-17T09:22:23.659Z,15.80
2018-10-17T09:24:53.251Z,16.00
2018-10-17T09:27:22.929Z,15.90
2018-10-17T09:29:52.655Z,16.07
2018-10-17T09:32:22.456Z,16.50
2018-10-17T09:34:52.267Z,15.43
2018-10-17T09:37:22.059Z,16.67
2018-10-17T09:39:51.793Z,13.20
2018-10-17T09:42:21.562Z,15.47
2018-10-17T09:44:51.199Z,14.13
2018-10-17T09:47:20.830Z,13.77
2018-10-17T09:49:51.848Z,12.40
2018-10-17T09:52:23.710Z,13.10
2018-10-17T09:54:53.412Z,13.17
2018-10-17T09:57:23.278Z,12.07
2018-10-17T09:59:53.059Z,14.20
2018-10-17T10:02:22.903Z,12.40
2018-10-17T10:04:52.493Z,13.60
2018-10-17T10:07:22.162Z,11.27
2018-10-17T10:09:51.869Z,13.33
2018-10-17T10:12:21.587Z,14.53
2018-10-17T10:14:51.339Z,16.10
2018-10-17T10:17:21.035Z,17.63
2018-10-17T10:19:50.739Z,18.27
2018-10-17T10:22:20.613Z,19.07
2018-10-17T10:24:50.332Z,18.03
2018-10-17T10:27:20.182Z,18.47
2018-10-17T10:29:49.912Z,18.87
2018-10-17T10:32:19.612Z,17.83
2018-10-17T10:34:49.291Z,18.53
2018-10-17T10:37:19.459Z,16.83
2018-10-17T10:39:49.662Z,17.10
2018-10-17T10:42:19.422Z,18.30
2018-10-17T10:44:49.171Z,16.57
2018-10-17T10:47:18.905Z,19.30
2018-10-17T10:49:48.580Z,17.77
2018-10-17T10:52:18.361Z,17.77
2018-10-17T10:54:47.989Z,17.70
2018-10-17T10:57:17.887Z,17.37
2018-10-17T10:59:47.889Z,19.03
2018-10-17T11:02:18.033Z,17.53
2018-10-17T11:04:48.346Z,23.30
2018-10-17T11:07:18.414Z,38.10
2018-10-17T11:09:48.699Z,42.17
2018-10-17T11:12:18.749Z,38.80
2018-10-17T11:14:49.256Z,26.07
2018-10-17T11:17:19.906Z,23.37
2018-10-17T11:19:50.313Z,23.10
2018-10-17T11:22:20.589Z,22.00
2018-10-17T11:24:50.742Z,34.63
2018-10-17T11:27:21.602Z,32.80
2018-10-17T11:29:51.976Z,30.20
2018-10-17T11:32:22.457Z,37.90
2018-10-17T11:34:52.401Z,51.83
2018-10-17T11:37:22.933Z,44.17
2018-10-17T11:39:53.111Z,44.70
2018-10-17T11:42:23.312Z,34.67
2018-10-17T11:44:53.043Z,33.50
2018-10-17T11:47:23.287Z,37.53
2018-10-17T11:49:55.350Z,37.17
2018-10-17T11:52:25.026Z,33.43
2018-10-17T11:54:54.679Z,30.63
2018-10-17T11:57:24.827Z,27.23
2018-10-17T11:59:56.036Z,17.23
2018-10-17T12:02:26.181Z,15.67
2018-10-17T12:04:57.016Z,12.40
2018-10-17T12:07:28.671Z,18.80
2018-10-17T12:09:58.895Z,20.43
2018-10-17T12:12:29.320Z,22.33
2018-10-17T12:14:59.416Z,25.07
2018-10-17T12:17:29.215Z,29.53
2018-10-17T12:19:59.862Z,29.30
2018-10-17T12:22:29.756Z,28.50
2018-10-17T12:24:59.384Z,22.53
2018-10-17T12:27:29.086Z,19.83
2018-10-17T12:29:58.834Z,18.73
2018-10-17T12:32:28.877Z,18.70
2018-10-17T12:34:58.870Z,22.83
2018-10-17T12:37:28.919Z,34.57
2018-10-17T12:39:58.730Z,38.40
2018-10-17T12:42:29.100Z,28.53
2018-10-17T12:44:58.888Z,26.77
2018-10-17T12:47:28.700Z,23.30
2018-10-17T12:49:58.432Z,22.37
2018-10-17T12:52:28.226Z,21.30
2018-10-17T12:54:59.273Z,21.07
2018-10-17T12:57:29.305Z,20.30
2018-10-17T13:00:01.288Z,32.23
2018-10-17T13:02:32.429Z,34.50
2018-10-17T13:05:02.129Z,34.70
2018-10-17T13:07:31.857Z,28.70
2018-10-17T13:10:01.710Z,25.27
2018-10-17T13:12:31.698Z,22.27
2018-10-17T13:15:01.425Z,19.70
2018-10-17T13:17:31.160Z,37.93
2018-10-17T13:20:00.929Z,38.10
2018-10-17T13:22:30.570Z,34.40
2018-10-17T13:25:01.900Z,28.90
2018-10-17T13:27:31.972Z,21.53
2018-10-17T13:30:01.717Z,22.37
2018-10-17T13:32:31.537Z,21.90
2018-10-17T13:35:01.297Z,20.30
2018-10-17T13:37:31.968Z,19.53
2018-10-17T13:40:01.788Z,20.80
2018-10-17T13:42:31.541Z,19.80
2018-10-17T13:45:01.279Z,17.97
2018-10-17T13:47:31.013Z,22.00
2018-10-17T13:50:00.866Z,21.57
2018-10-17T13:52:33.695Z,21.20
2018-10-17T13:57:44.264Z,20.20
2018-10-17T14:00:14.496Z,17.20
2018-10-17T14:02:45.247Z,15.50
2018-10-17T14:05:15.745Z,15.87
2018-10-17T14:07:46.010Z,15.90
2018-10-17T14:10:15.759Z,14.40
2018-10-17T14:12:45.536Z,15.47
2018-10-17T14:15:15.285Z,15.60
2018-10-17T14:17:46.834Z,15.17
2018-10-17T14:20:16.606Z,16.37
2018-10-17T14:22:46.432Z,15.83
2018-10-17T14:25:16.228Z,15.00
2018-10-17T14:27:46.654Z,14.03
2018-10-17T14:30:16.536Z,14.20
2018-10-17T14:32:47.105Z,15.20
2018-10-17T14:35:16.773Z,15.33
2018-10-17T14:37:46.621Z,15.23
2018-10-17T14:40:16.393Z,16.20
2018-10-17T14:42:46.093Z,16.00
2018-10-17T14:45:15.927Z,16.20
2018-10-17T14:47:46.378Z,14.87
2018-10-17T14:50:17.419Z,15.67
2018-10-17T14:52:47.060Z,15.30
2018-10-17T14:55:17.624Z,15.20
2018-10-17T14:57:47.479Z,16.13
2018-10-17T15:00:18.098Z,16.60
2018-10-17T15:02:47.819Z,18.13
2018-10-17T15:05:17.814Z,19.07
2018-10-17T15:07:47.475Z,18.50
2018-10-17T15:10:17.313Z,17.20
2018-10-17T15:12:47.979Z,18.93
2018-10-17T15:15:18.314Z,20.67
2018-10-17T15:17:48.082Z,20.07
2018-10-17T15:20:17.916Z,24.33
2018-10-17T15:22:48.120Z,27.67
2018-10-17T15:25:18.928Z,29.90
2018-10-17T15:27:48.848Z,31.60
2018-10-17T15:30:18.691Z,28.33
2018-10-17T15:32:48.376Z,30.30
2018-10-17T15:35:18.528Z,32.47
2018-10-17T15:37:49.355Z,35.90
2018-10-17T15:40:19.162Z,35.10
2018-10-17T15:42:49.047Z,35.20
2018-10-17T15:45:19.589Z,28.13
2018-10-17T15:47:54.246Z,26.13
2018-10-17T15:50:24.365Z,26.87
2018-10-17T15:52:54.028Z,27.00
2018-10-17T15:55:24.483Z,26.30
2018-10-17T15:57:54.629Z,23.00
2018-10-17T16:00:24.338Z,24.23
2018-10-17T16:02:54.116Z,22.00
2018-10-17T16:05:24.116Z,20.23
2018-10-17T16:07:54.306Z,22.60
2018-10-17T16:10:24.714Z,24.07
2018-10-17T16:12:55.867Z,25.10
2018-10-17T16:15:26.760Z,27.30
2018-10-17T16:17:58.064Z,32.67
2018-10-17T16:20:28.421Z,35.70
2018-10-17T16:22:58.988Z,31.70
2018-10-17T16:25:29.452Z,28.70
2018-10-17T16:27:59.548Z,31.73
2018-10-17T16:30:29.539Z,29.97
2018-10-17T16:32:59.545Z,27.60
2018-10-17T16:35:29.970Z,29.03
2018-10-17T16:38:00.828Z,33.27
2018-10-17T16:40:31.256Z,32.33
2018-10-17T16:43:02.052Z,29.27
2018-10-17T16:45:32.282Z,31.30
2018-10-17T16:48:02.633Z,27.07
2018-10-17T16:50:34.434Z,23.67
2018-10-17T16:53:05.497Z,23.00
2018-10-17T16:55:35.924Z,22.57
2018-10-17T16:58:07.307Z,22.10
2018-10-17T17:00:37.499Z,24.30
2018-10-17T17:03:08.021Z,22.80
2018-10-17T17:05:38.548Z,22.67
2018-10-17T17:08:08.690Z,22.33
2018-10-17T17:10:38.968Z,23.60
2018-10-17T17:13:09.045Z,23.27
2018-10-17T17:15:45.705Z,22.83
2018-10-17T17:18:15.982Z,23.10
2018-10-17T17:20:46.482Z,23.40
2018-10-17T17:23:16.747Z,23.37
2018-10-17T17:25:48.772Z,22.90
2018-10-17T17:28:22.611Z,22.17
2018-10-17T17:30:53.773Z,22.70
2018-10-17T17:33:24.304Z,22.10
2018-10-17T17:35:54.460Z,22.30
2018-10-17T17:38:26.126Z,22.23
2018-10-17T17:40:56.311Z,22.20
2018-10-17T17:43:26.489Z,23.07
2018-10-17T17:45:56.859Z,22.27
2018-10-17T17:48:27.321Z,22.20
2018-10-17T17:50:58.861Z,21.37
2018-10-17T17:53:29.929Z,21.07
2018-10-17T17:56:00.004Z,21.80
2018-10-17T17:58:30.529Z,19.93
2018-10-17T18:01:00.629Z,20.27
2018-10-17T18:03:30.759Z,20.27
2018-10-17T18:06:00.463Z,18.43
2018-10-17T18:08:30.537Z,19.33
2018-10-17T18:11:09.985Z,19.17
2018-10-17T18:13:43.924Z,18.50
2018-10-17T18:16:14.845Z,19.10
2018-10-17T18:18:45.125Z,19.23
2018-10-17T18:21:15.499Z,20.27
2018-10-17T18:23:46.654Z,19.60
2018-10-17T18:26:20.568Z,19.13
2018-10-17T18:28:50.792Z,19.00
2018-10-17T18:31:21.362Z,18.57
2018-10-17T18:33:51.630Z,17.67
2018-10-17T18:36:21.716Z,19.40
2018-10-17T18:38:53.864Z,19.23
2018-10-17T18:41:25.894Z,20.20
2018-10-17T18:43:56.941Z,18.53
2018-10-17T18:46:27.618Z,18.43
2018-10-17T18:48:58.159Z,18.93
2018-10-17T18:51:28.364Z,18.93
2018-10-17T18:54:00.107Z,17.43
2018-10-17T18:56:30.551Z,18.40
2018-10-17T18:59:01.912Z,19.00
2018-10-17T19:01:32.571Z,17.40
2018-10-17T19:04:03.650Z,17.57
2018-10-17T19:06:34.302Z,17.30
2018-10-17T19:09:05.711Z,18.00
2018-10-17T19:11:35.927Z,18.23
2018-10-17T19:14:06.443Z,17.90
2018-10-17T19:16:37.107Z,20.67
2018-10-17T19:19:08.538Z,18.37
2018-10-17T19:21:39.234Z,17.53
2018-10-17T19:24:10.656Z,17.37
2018-10-17T19:26:40.909Z,17.60
2018-10-17T19:29:11.445Z,17.53
2018-10-17T19:31:41.426Z,16.80
2018-10-17T19:34:11.554Z,16.73
2018-10-17T19:36:41.432Z,18.33
2018-10-17T19:39:13.892Z,17.47
2018-10-17T19:41:44.049Z,17.43
2018-10-17T19:44:13.798Z,16.20
2018-10-17T19:46:44.515Z,16.60
2018-10-17T19:49:14.310Z,16.03
2018-10-17T19:53:13.274Z,17.90
2018-10-17T19:55:43.289Z,18.47
2018-10-17T19:58:12.987Z,17.73
2018-10-17T20:00:42.752Z,19.27
2018-10-17T20:03:12.633Z,18.00
2018-10-17T20:05:44.511Z,18.30
2018-10-17T20:08:14.809Z,18.40
2018-10-17T20:10:45.083Z,19.83
2018-10-17T20:13:14.838Z,20.43
2018-10-17T20:15:44.656Z,20.27
2018-10-17T20:18:14.436Z,19.00
2018-10-17T20:20:44.349Z,20.00
2018-10-17T20:23:14.826Z,20.50
2018-10-17T20:25:45.071Z,19.87
2018-10-17T20:28:15.897Z,19.00
2018-10-17T20:30:46.938Z,18.50
2018-10-17T20:33:16.942Z,19.30
2018-10-17T20:35:46.643Z,18.53
2018-10-17T20:38:16.464Z,19.90
2018-10-17T20:40:46.293Z,20.60
2018-10-17T20:43:16.148Z,18.40
2018-10-17T20:45:46.005Z,19.77
2018-10-17T20:48:15.764Z,20.30
2018-10-17T20:50:45.756Z,19.90
2018-10-17T20:53:15.519Z,21.60
2018-10-17T20:55:46.066Z,19.83
2018-10-17T20:58:17.399Z,22.07
2018-10-17T21:00:47.459Z,21.67
2018-10-17T21:03:18.266Z,21.03
2018-10-17T21:05:48.270Z,22.40
2018-10-17T21:08:18.375Z,21.30
2018-10-17T21:10:48.518Z,21.07
2018-10-17T21:13:19.070Z,21.47
2018-10-17T21:15:49.557Z,20.17
2018-10-17T21:18:19.862Z,20.70
2018-10-17T21:20:50.072Z,21.83
2018-10-17T21:23:20.244Z,21.20
2018-10-17T21:25:50.290Z,22.17
2018-10-17T21:28:20.460Z,22.73
2018-10-17T21:30:50.877Z,21.00
2018-10-17T21:33:21.882Z,22.40
2018-10-17T21:35:52.079Z,23.27
2018-10-17T21:38:22.344Z,23.33
2018-10-17T21:40:53.790Z,20.57
2018-10-17T21:43:24.003Z,23.07
2018-10-17T21:45:54.333Z,22.30
2018-10-17T21:48:25.744Z,22.07
2018-10-17T21:50:56.235Z,23.87
2018-10-17T21:53:26.483Z,21.17
2018-10-17T21:55:56.660Z,23.07
2018-10-17T21:58:27.077Z,22.70
2018-10-17T22:00:57.567Z,23.43
2018-10-17T22:03:28.213Z,24.20
2018-10-17T22:05:58.277Z,23.90
2018-10-17T22:08:28.673Z,21.93
2018-10-17T22:10:58.744Z,23.17
2018-10-17T22:13:28.993Z,23.77
2018-10-17T22:15:59.502Z,22.30
2018-10-17T22:18:29.741Z,23.53
2018-10-17T22:20:59.732Z,22.50
2018-10-17T22:23:29.963Z,24.10
2018-10-17T22:26:01.117Z,22.67
2018-10-17T22:28:31.476Z,24.97
2018-10-17T22:31:01.565Z,24.90
2018-10-17T22:33:31.807Z,24.00
2018-10-17T22:36:02.086Z,23.77
2018-10-17T22:38:32.188Z,24.67
2018-10-17T22:41:02.575Z,23.87
2018-10-17T22:43:32.804Z,24.20
2018-10-17T22:46:02.916Z,23.20
2018-10-17T22:48:33.035Z,25.40
2018-10-17T22:51:03.341Z,24.20
2018-10-17T22:53:33.774Z,23.57
2018-10-17T23:10:49.112Z,25.10
2018-10-17T23:13:19.486Z,23.87
2018-10-17T23:15:49.500Z,25.10
2018-10-17T23:18:19.640Z,22.93
2018-10-17T23:20:50.079Z,22.53
2018-10-17T23:23:20.175Z,24.13
2018-10-17T23:25:50.321Z,23.70
2018-10-17T23:28:21.065Z,25.30
2018-10-17T23:30:51.150Z,25.37
2018-10-17T23:33:21.153Z,23.37
2018-10-17T23:35:51.153Z,24.80
2018-10-17T23:38:21.494Z,25.67
2018-10-17T23:40:51.508Z,24.83
2018-10-17T23:43:21.609Z,24.40
2018-10-17T23:45:51.633Z,23.97
2018-10-17T23:48:21.758Z,25.60
2018-10-17T23:50:52.127Z,23.70
2018-10-17T23:53:22.159Z,23.70
2018-10-17T23:55:52.450Z,25.00
2018-10-17T23:58:22.853Z,24.63
